Time;durP1;ratioP1;P1;durP2;ratioP2;P2;SDS_P1;SDS_P2;PMS_P1;PMS_P2;Temp;Humidity;BMP_temperature;BMP_pressure;BME280_temperature;BME280_humidity;BME280_pressure;Samples;Min_cycle;Max_cycle;Signal;HPM_P1;HPM_P2
2022/10/24 00:01:59;;;;;;;7.78;2.75;;;;;;;14.66;100.00;100227.53;5113207;28;20124;-78
2022/10/24 00:04:24;;;;;;;9.38;2.95;;;;;;;14.55;100.00;100213.19;5094205;28;20119;-78
2022/10/24 00:06:49;;;;;;;5.73;2.87;;;;;;;14.64;100.00;100231.56;5113063;28;20043;-78
2022/10/24 00:09:15;;;;;;;10.77;4.17;;;;;;;14.71;100.00;100224.06;5096676;28;20285;-79
2022/10/24 00:11:41;;;;;;;8.95;2.55;;;;;;;14.75;100.00;100220.63;5096009;28;20619;-78
2022/10/24 00:14:06;;;;;;;10.25;3.42;;;;;;;14.74;100.00;100215.47;5094599;28;20069;-78
2022/10/24 00:16:31;;;;;;;7.60;2.97;;;;;;;14.74;100.00;100218.16;5094244;28;20067;-79
2022/10/24 00:18:57;;;;;;;8.50;3.03;;;;;;;14.70;100.00;100217.06;5094715;28;20152;-78
2022/10/24 00:21:22;;;;;;;10.00;2.50;;;;;;;14.61;100.00;100205.97;5116034;28;20067;-79
2022/10/24 00:23:47;;;;;;;9.17;3.20;;;;;;;14.66;100.00;100215.97;5112797;28;20023;-78
2022/10/24 00:26:13;;;;;;;4.50;2.25;;;;;;;14.57;100.00;100213.75;5112623;28;20320;-78
2022/10/24 00:28:39;;;;;;;13.50;2.58;;;;;;;14.56;100.00;100214.00;5115903;28;20047;-78
2022/10/24 00:31:06;;;;;;;10.20;2.72;;;;;;;14.52;100.00;100204.81;5112775;28;20391;-77
2022/10/24 00:33:32;;;;;;;5.70;2.85;;;;;;;14.61;100.00;100214.03;5115832;28;20039;-79
2022/10/24 00:35:58;;;;;;;9.68;3.53;;;;;;;14.62;100.00;100204.09;5112518;28;20387;-78
2022/10/24 00:38:23;;;;;;;5.60;3.08;;;;;;;14.61;100.00;100202.47;5115136;28;20130;-79
2022/10/24 00:40:49;;;;;;;7.82;2.47;;;;;;;14.62;100.00;100209.47;5113220;28;20398;-78
2022/10/24 00:43:18;;;;;;;9.60;2.70;;;;;;;14.59;100.00;100209.97;5094216;28;20024;-78
2022/10/24 00:45:46;;;;;;;7.88;2.60;;;;;;;14.65;100.00;100207.06;5115289;28;20047;-78
2022/10/24 00:48:30;;;;;;;8.32;2.80;;;;;;;14.70;100.00;100206.31;5094630;28;20051;-79
2022/10/24 00:51:00;;;;;;;6.40;2.85;;;;;;;14.63;100.00;100198.44;5114674;28;20100;-78
2022/10/24 00:53:28;;;;;;;5.30;2.30;;;;;;;14.71;100.00;100207.91;5112416;28;20026;-79
2022/10/24 00:55:55;;;;;;;7.28;2.85;;;;;;;14.64;100.00;100186.63;5115323;28;20122;-79
2022/10/24 00:58:24;;;;;;;5.43;2.58;;;;;;;14.70;100.00;100204.41;5112419;28;20020;-77
2022/10/24 01:00:50;;;;;;;6.95;2.70;;;;;;;14.63;100.00;100194.94;5112613;28;20459;-78
2022/10/24 01:03:16;;;;;;;8.48;3.13;;;;;;;14.56;100.00;100187.09;5115394;28;20108;-78
2022/10/24 01:06:13;;;;;;;6.22;3.05;;;;;;;14.59;100.00;100204.59;5112109;28;20384;-78
2022/10/24 01:08:55;;;;;;;8.25;2.47;;;;;;;14.62;100.00;100199.50;5080452;27;20567;-78
2022/10/24 01:11:42;;;;;;;6.17;3.50;;;;;;;14.65;100.00;100203.56;5112299;28;20483;-79
2022/10/24 01:14:25;;;;;;;6.43;2.85;;;;;;;14.61;100.00;100191.69;5115070;28;20052;-78
2022/10/24 01:17:18;;;;;;;8.77;2.97;;;;;;;14.62;100.00;100186.06;5111899;28;20023;-79
2022/10/24 01:19:49;;;;;;;5.75;3.17;;;;;;;14.64;100.00;100196.56;5093190;28;20471;-79
2022/10/24 01:22:20;;;;;;;5.53;2.70;;;;;;;14.56;100.00;100195.97;5112131;28;20080;-79
2022/10/24 01:25:23;;;;;;;7.72;2.55;;;;;;;14.63;100.00;100187.69;5113495;28;20034;-79
2022/10/24 01:28:10;;;;;;;;;;;;;;;14.63;100.00;100187.69;5094188;28;20020;-79
2022/10/24 01:30:44;;;;;;;13.23;3.20;;;;;;;14.60;100.00;100184.69;5095047;28;19960;-79
2022/10/24 01:33:14;;;;;;;9.50;3.20;;;;;;;14.60;100.00;100185.50;5112226;28;20036;-79
2022/10/24 01:35:50;;;;;;;8.70;3.38;;;;;;;14.65;100.00;100173.97;5111904;28;20437;-79
2022/10/24 01:38:26;;;;;;;5.38;3.05;;;;;;;14.56;100.00;100176.34;5093068;28;20063;-79
2022/10/24 01:40:59;;;;;;;8.77;2.67;;;;;;;14.59;100.00;100185.78;5093473;28;20039;-79
2022/10/24 01:43:27;;;;;;;;;;;;;;;14.60;100.00;100193.59;5115145;28;20077;-79
2022/10/24 01:45:59;;;;;;;6.45;2.58;;;;;;;14.66;100.00;100186.34;5111726;28;19927;-79
2022/10/24 01:48:27;;;;;;;11.02;3.30;;;;;;;14.72;100.00;100182.63;5092805;28;20572;-79
2022/10/24 01:50:54;;;;;;;9.38;2.90;;;;;;;14.73;100.00;100177.00;5111618;28;20026;-79
2022/10/24 01:53:22;;;;;;;8.68;3.33;;;;;;;14.72;100.00;100174.56;5111935;28;20027;-79
2022/10/24 01:55:48;;;;;;;8.02;3.00;;;;;;;14.64;100.00;100154.31;5115030;28;20472;-78
2022/10/24 01:58:14;;;;;;;9.20;2.92;;;;;;;14.64;100.00;100159.72;5093472;28;20054;-78
2022/10/24 02:00:41;;;;;;;6.25;2.80;;;;;;;14.67;100.00;100167.25;5114387;28;20047;-79
2022/10/24 02:03:15;;;;;;;6.75;2.75;;;;;;;14.66;100.00;100164.81;5096051;28;20019;-79
2022/10/24 02:05:47;;;;;;;6.53;2.72;;;;;;;14.71;100.00;100165.66;5095902;28;20096;-79
2022/10/24 02:08:17;;;;;;;3.95;2.30;;;;;;;14.75;100.00;100166.00;5115068;28;20046;-79
2022/10/24 02:10:49;;;;;;;10.27;2.92;;;;;;;14.77;100.00;100169.25;5114763;28;20225;-78
2022/10/24 02:13:28;;;;;;;6.80;3.10;;;;;;;14.79;100.00;100173.28;5118058;28;20075;-77
2022/10/24 02:15:57;;;;;;;5.68;2.38;;;;;;;14.88;100.00;100165.53;5096617;28;20032;-79
2022/10/24 02:18:23;;;;;;;6.15;2.35;;;;;;;14.83;100.00;100154.75;5117828;28;20043;-78
2022/10/24 02:21:10;;;;;;;5.18;2.20;;;;;;;14.80;100.00;100163.34;5096640;28;20484;-78
2022/10/24 02:23:44;;;;;;;6.05;2.80;;;;;;;14.81;100.00;100170.34;5117882;27;20427;-79
2022/10/24 02:26:17;;;;;;;7.82;3.00;;;;;;;14.79;100.00;100167.09;5114663;28;20016;-79
2022/10/24 02:28:46;;;;;;;9.00;2.80;;;;;;;14.74;100.00;100164.34;5116124;28;20054;-78
2022/10/24 02:31:17;;;;;;;3.88;2.15;;;;;;;14.67;100.00;100169.94;5097809;28;20019;-78
2022/10/24 02:37:06;;;;;;;7.72;2.40;;;;;;;14.74;100.00;100161.66;5114982;28;20444;-79
2022/10/24 02:39:32;;;;;;;15.95;2.97;;;;;;;14.70;100.00;100150.59;5114886;28;20114;-78
2022/10/24 02:42:00;;;;;;;5.00;2.58;;;;;;;14.75;100.00;100166.81;5078800;28;20071;-79
2022/10/24 02:44:27;;;;;;;8.15;2.50;;;;;;;14.79;100.00;100164.41;5096089;28;20031;-78
2022/10/24 02:46:55;;;;;;;7.78;2.30;;;;;;;14.78;100.00;100160.09;5095393;28;20035;-78
2022/10/24 02:49:21;;;;;;;6.57;2.60;;;;;;;14.75;100.00;100155.22;5114502;28;20317;-79
2022/10/24 02:51:48;;;;;;;7.75;2.40;;;;;;;14.71;100.00;100152.22;5096689;27;20027;-78
2022/10/24 02:54:13;;;;;;;5.93;3.30;;;;;;;14.79;100.00;100170.59;5116413;28;20552;-78
2022/10/24 02:56:45;;;;;;;6.82;2.10;;;;;;;14.81;100.00;100163.06;5095944;28;20043;-79
2022/10/24 02:59:10;;;;;;;6.80;2.03;;;;;;;14.87;100.00;100162.03;5117350;28;20118;-78
2022/10/24 03:01:36;;;;;;;9.10;2.38;;;;;;;14.84;100.00;100165.25;5096096;28;20110;-78
2022/10/24 03:04:01;;;;;;;6.70;2.50;;;;;;;14.90;100.00;100155.31;5095408;28;20072;-78
2022/10/24 03:06:26;;;;;;;4.22;1.77;;;;;;;15.02;100.00;100157.81;5113967;28;20281;-77
2022/10/24 03:08:52;;;;;;;5.05;2.10;;;;;;;15.13;100.00;100173.78;5114179;28;20028;-77
2022/10/24 03:11:17;;;;;;;6.27;2.27;;;;;;;15.13;100.00;100171.09;5117281;28;20123;-77
2022/10/24 03:13:42;;;;;;;4.63;2.10;;;;;;;15.11;100.00;100172.44;5094713;28;20286;-78
2022/10/24 03:16:08;;;;;;;9.07;2.20;;;;;;;15.09;100.00;100175.38;5095404;28;20115;-77
2022/10/24 03:18:33;;;;;;;6.05;2.28;;;;;;;15.02;100.00;100163.19;5095529;28;20035;-75
2022/10/24 03:20:58;;;;;;;4.70;2.25;;;;;;;15.03;100.00;100151.34;5115209;28;20032;-74
2022/10/24 03:23:27;;;;;;;7.38;2.33;;;;;;;15.04;100.00;100156.50;5115300;28;20027;-79
2022/10/24 03:25:54;;;;;;;5.88;2.00;;;;;;;15.02;100.00;100160.50;5095336;28;20032;-79
2022/10/24 03:28:19;;;;;;;7.60;2.15;;;;;;;14.84;100.00;100161.75;5116885;27;20128;-78
2022/10/24 03:30:44;;;;;;;11.00;2.20;;;;;;;14.81;100.00;100156.88;5095356;28;20476;-78
2022/10/24 03:33:09;;;;;;;5.83;2.50;;;;;;;14.81;100.00;100162.25;5116960;28;20289;-78
2022/10/24 03:35:36;;;;;;;5.75;2.13;;;;;;;14.74;100.00;100161.66;5113516;28;20343;-79
2022/10/24 03:38:02;;;;;;;5.45;2.42;;;;;;;14.75;100.00;100157.91;5095774;28;20400;-78
2022/10/24 03:40:27;;;;;;;4.38;1.80;;;;;;;14.74;100.00;100158.97;5094844;28;20040;-79
2022/10/24 03:42:53;;;;;;;5.80;2.28;;;;;;;14.66;100.00;100140.63;5095290;28;20038;-78
2022/10/24 03:45:18;;;;;;;10.57;2.50;;;;;;;14.70;100.00;100150.59;5094632;28;20035;-78
2022/10/24 03:47:43;;;;;;;7.70;2.73;;;;;;;14.77;100.00;100153.91;5113468;28;20292;-78
2022/10/24 03:50:09;;;;;;;6.30;2.20;;;;;;;14.76;100.00;100135.31;5115130;28;20278;-78
2022/10/24 03:52:34;;;;;;;6.43;2.92;;;;;;;14.64;100.00;100115.84;5096281;28;20757;-79
2022/10/24 03:54:59;;;;;;;5.72;2.10;;;;;;;14.79;100.00;100134.81;5113503;28;20028;-78
2022/10/24 03:57:25;;;;;;;6.25;2.50;;;;;;;14.90;100.00;100133.78;5116315;28;20031;-78
2022/10/24 03:59:50;;;;;;;10.00;3.33;;;;;;;14.90;100.00;100135.66;5095111;28;20027;-78
2022/10/24 04:02:15;;;;;;;6.82;2.70;;;;;;;14.92;100.00;100144.28;5094415;28;20123;-77
2022/10/24 04:04:41;;;;;;;5.40;2.60;;;;;;;14.94;100.00;100142.97;5113103;28;20486;-78
2022/10/24 04:07:06;;;;;;;4.18;2.55;;;;;;;14.95;100.00;100149.16;5113230;28;20289;-79
2022/10/24 04:09:32;;;;;;;7.00;2.65;;;;;;;14.85;100.00;100150.72;5116371;28;20051;-78
2022/10/24 04:15:19;;;;;;;6.28;1.88;;;;;;;14.95;100.00;100152.66;5113960;28;20034;-77
2022/10/24 04:17:44;;;;;;;8.00;2.35;;;;;;;15.02;100.00;100152.41;5113161;28;20032;-78
2022/10/24 04:20:10;;;;;;;8.48;2.35;;;;;;;15.08;100.00;100132.56;5094379;28;20093;-77
2022/10/24 04:22:35;;;;;;;8.60;2.97;;;;;;;14.97;100.00;100150.50;5113046;28;20072;-77
2022/10/24 04:25:01;;;;;;;7.23;2.47;;;;;;;14.88;100.00;100133.22;5114975;28;20043;-78
2022/10/24 04:27:26;;;;;;;4.95;1.90;;;;;;;14.90;100.00;100130.28;5113550;28;20368;-79
2022/10/24 04:29:52;;;;;;;7.57;2.53;;;;;;;14.91;100.00;100134.59;5094573;28;20027;-78
2022/10/24 04:32:17;;;;;;;8.52;2.47;;;;;;;14.78;100.00;100138.56;5093876;28;20047;-78
2022/10/24 04:34:42;;;;;;;5.25;2.22;;;;;;;14.88;100.00;100150.19;5112651;28;20027;-76
2022/10/24 04:37:07;;;;;;;6.90;2.17;;;;;;;14.94;100.00;100134.88;5115794;28;20035;-77
2022/10/24 04:39:34;;;;;;;5.22;2.47;;;;;;;14.86;100.00;100136.19;5113145;28;20277;-77
2022/10/24 04:41:59;;;;;;;5.60;2.20;;;;;;;14.94;100.00;100140.25;5112970;28;20027;-78
2022/10/24 04:44:25;;;;;;;7.57;2.35;;;;;;;14.98;100.00;100127.91;5115579;28;20039;-77
2022/10/24 04:46:50;;;;;;;7.38;2.63;;;;;;;15.02;100.00;100141.66;5094453;28;20437;-78
2022/10/24 04:49:16;;;;;;;5.22;1.67;;;;;;;14.92;100.00;100139.72;5115816;27;20476;-78
2022/10/24 04:51:41;;;;;;;4.80;2.22;;;;;;;14.82;100.00;100140.47;5078145;28;20030;-78
2022/10/24 04:54:07;;;;;;;6.30;2.10;;;;;;;14.90;100.00;100136.47;5097132;27;20059;-79
2022/10/24 04:56:33;;;;;;;6.68;2.38;;;;;;;14.95;100.00;100146.47;5113785;28;20498;-78
2022/10/24 04:58:59;;;;;;;6.25;1.90;;;;;;;14.87;100.00;100137.81;5094734;28;20100;-78
2022/10/24 05:01:24;;;;;;;6.40;2.10;;;;;;;14.85;100.00;100150.72;5115939;27;20067;-77
2022/10/24 05:03:49;;;;;;;4.30;1.80;;;;;;;14.88;100.00;100144.00;5112692;28;20026;-77
2022/10/24 05:09:37;;;;;;;9.27;2.10;;;;;;;14.90;100.00;100147.25;5113136;28;20105;-78
2022/10/24 05:12:03;;;;;;;6.35;2.60;;;;;;;14.87;100.00;100140.50;5094113;28;20479;-78
2022/10/24 05:14:29;;;;;;;4.90;1.85;;;;;;;14.91;100.00;100146.16;5094438;28;20462;-78
2022/10/24 05:20:16;;;;;;;9.40;2.33;;;;;;;14.92;100.00;100155.06;5112581;28;20119;-79
2022/10/24 05:22:44;;;;;;;9.55;2.30;;;;;;;14.88;100.00;100163.66;5094475;28;20106;-77
2022/10/24 05:25:09;;;;;;;9.93;2.50;;;;;;;14.97;100.00;100155.91;5115576;27;20441;-78
2022/10/24 05:27:34;;;;;;;6.38;1.85;;;;;;;15.03;100.00;100168.31;5113148;28;20028;-78
2022/10/24 05:30:00;;;;;;;7.63;2.30;;;;;;;15.03;100.00;100162.94;5115961;27;20050;-76
2022/10/24 05:32:29;;;;;;;6.65;2.28;;;;;;;15.04;100.00;100177.22;5077764;28;20024;-78
2022/10/24 05:34:56;;;;;;;8.35;2.17;;;;;;;15.10;100.00;100187.78;5112568;28;20032;-76
2022/10/24 05:37:21;;;;;;;7.88;2.40;;;;;;;15.13;100.00;100173.78;5117804;27;20039;-77
2022/10/24 05:43:09;;;;;;;5.13;2.38;;;;;;;15.07;100.00;100174.00;5116123;28;20184;-76
2022/10/24 05:45:34;;;;;;;9.33;2.67;;;;;;;15.10;100.00;100179.69;5097327;28;20516;-79
2022/10/24 05:48:00;;;;;;;6.78;2.58;;;;;;;15.23;100.00;100173.03;5097007;28;20274;-77
2022/10/24 05:50:25;;;;;;;14.05;2.70;;;;;;;15.18;100.00;100160.34;5115651;28;20551;-78
2022/10/24 05:52:51;;;;;;;7.85;2.55;;;;;;;15.17;100.00;100168.69;5115279;28;20503;-77
2022/10/24 05:55:16;;;;;;;6.15;1.90;;;;;;;15.23;100.00;100167.63;5118794;28;20408;-77
2022/10/24 05:57:42;;;;;;;7.35;2.10;;;;;;;15.17;100.00;100172.19;5115623;28;20028;-75
2022/10/24 06:00:11;;;;;;;9.10;2.27;;;;;;;15.15;100.00;100179.72;5119065;27;20051;-76
2022/10/24 06:02:36;;;;;;;5.85;2.00;;;;;;;15.08;100.00;100175.63;5080143;28;20321;-78
2022/10/24 06:05:02;;;;;;;8.77;2.37;;;;;;;14.97;100.00;100157.78;5115589;28;20027;-77
2022/10/24 06:07:27;;;;;;;10.38;2.72;;;;;;;15.00;100.00;100176.91;5118225;27;20301;-78
2022/10/24 06:09:53;;;;;;;5.82;2.70;;;;;;;14.92;100.00;100177.41;5115021;28;20028;-75
2022/10/24 06:12:18;;;;;;;8.65;2.15;;;;;;;14.96;100.00;100183.88;5096088;28;20085;-76
2022/10/24 06:14:43;;;;;;;8.23;2.40;;;;;;;14.98;100.00;100180.94;5114998;28;20049;-76
2022/10/24 06:17:10;;;;;;;5.63;2.10;;;;;;;14.94;100.00;100190.59;5114865;28;20348;-79
2022/10/24 06:19:37;;;;;;;8.95;2.63;;;;;;;14.90;100.00;100194.88;5095960;28;20035;-76
2022/10/24 06:22:04;;;;;;;4.00;1.83;;;;;;;14.81;100.00;100189.19;5114886;28;20034;-77
2022/10/24 06:24:29;;;;;;;6.75;2.20;;;;;;;14.83;100.00;100184.34;5117814;28;20047;-77
2022/10/24 06:26:54;;;;;;;9.20;2.30;;;;;;;14.80;100.00;100176.78;5114590;28;20028;-75
2022/10/24 06:29:20;;;;;;;9.70;3.05;;;;;;;14.81;100.00;100176.53;5114618;28;20273;-76
2022/10/24 06:31:45;;;;;;;8.50;2.10;;;;;;;14.91;100.00;100180.34;5117620;28;20048;-76
2022/10/24 06:34:10;;;;;;;12.03;2.50;;;;;;;14.86;100.00;100186.53;5096365;28;20055;-76
2022/10/24 06:36:36;;;;;;;10.17;3.07;;;;;;;14.89;100.00;100188.69;5095684;28;20668;-77
2022/10/24 06:39:01;;;;;;;7.35;2.10;;;;;;;14.89;100.00;100199.47;5096193;28;20269;-77
2022/10/24 06:41:27;;;;;;;8.45;2.25;;;;;;;14.88;100.00;100198.66;5116624;27;20461;-77
2022/10/24 06:43:52;;;;;;;10.68;2.13;;;;;;;14.79;100.00;100202.09;5115245;28;20471;-78
2022/10/24 06:46:22;;;;;;;11.38;2.80;;;;;;;14.81;100.00;100222.28;5114426;28;20024;-78
2022/10/24 06:48:47;;;;;;;6.68;2.40;;;;;;;14.84;100.00;100215.59;5116222;27;20035;-77
2022/10/24 06:51:15;;;;;;;8.43;2.70;;;;;;;14.88;100.00;100206.72;5114382;28;20089;-75
2022/10/24 06:53:41;;;;;;;7.05;2.28;;;;;;;14.92;100.00;100216.97;5117360;27;20052;-76
2022/10/24 06:56:07;;;;;;;9.50;2.78;;;;;;;15.06;100.00;100220.88;5114148;28;20031;-75
2022/10/24 06:58:34;;;;;;;10.90;2.60;;;;;;;15.14;100.00;100239.22;5114097;28;20104;-77
2022/10/24 07:01:06;;;;;;;9.77;2.60;;;;;;;15.13;100.00;100246.50;5106261;28;20427;-78
2022/10/24 07:03:32;;;;;;;8.02;2.10;;;;;;;15.27;100.00;100232.56;5095855;28;20026;-76
2022/10/24 07:05:57;;;;;;;9.00;2.30;;;;;;;15.27;100.00;100235.25;5116982;28;20043;-77
2022/10/24 07:08:23;;;;;;;13.57;2.13;;;;;;;15.23;100.00;100229.59;5113970;28;20056;-78
2022/10/24 07:10:48;;;;;;;8.15;2.08;;;;;;;15.09;100.00;100237.31;5095127;28;20296;-78
2022/10/24 07:13:13;;;;;;;10.80;2.33;;;;;;;15.15;100.00;100230.88;5095723;28;20027;-77
2022/10/24 07:15:39;;;;;;;14.23;2.75;;;;;;;15.07;100.00;100247.53;5095628;28;20035;-76
2022/10/24 07:18:04;;;;;;;7.17;1.80;;;;;;;14.93;100.00;100245.53;5117049;28;20046;-76
2022/10/24 07:20:29;;;;;;;16.08;2.72;;;;;;;14.98;100.00;100240.16;5113825;28;20288;-77
2022/10/24 07:22:54;;;;;;;9.20;2.85;;;;;;;15.09;100.00;100241.88;5116963;28;20039;-77
2022/10/24 07:25:20;;;;;;;7.20;2.27;;;;;;;15.11;100.00;100251.34;5113631;28;20036;-77
2022/10/24 07:27:45;;;;;;;7.30;2.17;;;;;;;15.13;100.00;100270.72;5114232;28;20310;-77
2022/10/24 07:33:33;;;;;;;8.38;2.13;;;;;;;15.25;100.00;100284.00;5114629;27;20525;-78
2022/10/24 07:35:59;;;;;;;7.25;2.05;;;;;;;15.21;100.00;100277.50;5098013;28;20036;-77
2022/10/24 07:38:25;;;;;;;5.68;2.22;;;;;;;15.18;100.00;100280.72;5095323;28;20054;-76
2022/10/24 07:40:51;;;;;;;10.50;2.08;;;;;;;15.12;100.00;100279.06;5116519;27;20086;-77
2022/10/24 07:43:16;;;;;;;7.37;2.47;;;;;;;15.08;100.00;100278.78;5113480;28;20055;-77
2022/10/24 07:45:43;;;;;;;15.85;2.58;;;;;;;15.24;100.00;100298.53;5116173;27;20304;-78
2022/10/24 07:48:09;;;;;;;8.45;2.40;;;;;;;15.36;100.00;100295.69;5113320;28;20028;-78
2022/10/24 07:50:41;;;;;;;10.18;2.35;;;;;;;15.39;100.00;100304.06;5113309;28;20028;-77
2022/10/24 07:53:06;;;;;;;8.63;2.53;;;;;;;15.32;100.00;100311.53;5116546;28;20036;-77
2022/10/24 07:55:32;;;;;;;13.03;2.37;;;;;;;15.26;100.00;100317.13;5095075;28;20486;-77
2022/10/24 07:57:57;;;;;;;8.65;2.15;;;;;;;15.24;100.00;100324.66;5094429;28;20330;-77
2022/10/24 08:03:44;;;;;;;10.38;2.22;;;;;;;15.32;100.00;100327.69;5113274;28;20356;-76
2022/10/24 08:06:14;;;;;;;13.02;2.45;;;;;;;15.41;100.00;100334.25;5113049;28;20523;-76
2022/10/24 08:08:39;;;;;;;6.82;2.40;;;;;;;15.43;100.00;100334.78;5093992;28;20035;-77
2022/10/24 08:11:10;;;;;;;8.27;2.20;;;;;;;15.37;100.00;100325.06;5113364;28;20031;-77
2022/10/24 08:13:36;;;;;;;10.90;2.50;;;;;;;15.38;100.00;100334.75;5113075;28;20023;-76
2022/10/24 08:16:04;;;;;;;6.25;1.80;;;;;;;15.35;100.00;100347.94;5094439;28;20441;-76
2022/10/24 08:18:29;;;;;;;8.52;2.25;;;;;;;15.36;100.00;100333.41;5113248;28;20028;-75
2022/10/24 08:20:59;;;;;;;9.13;2.03;;;;;;;15.48;100.00;100345.59;5115992;27;20521;-75
2022/10/24 08:23:25;;;;;;;5.22;1.83;;;;;;;15.68;100.00;100346.84;5094709;28;20355;-77
2022/10/24 08:25:50;;;;;;;6.80;1.88;;;;;;;15.78;100.00;100358.50;5096448;27;20027;-77
2022/10/24 08:28:15;;;;;;;11.27;2.40;;;;;;;15.78;100.00;100353.13;5095677;28;20401;-77
2022/10/24 08:30:40;;;;;;;8.67;2.00;;;;;;;15.88;100.00;100356.94;5112748;28;20304;-76
2022/10/24 08:33:06;;;;;;;10.37;2.20;;;;;;;15.79;100.00;100362.81;5115697;27;20761;-76
2022/10/24 08:38:53;;;;;;;7.25;2.10;;;;;;;15.82;100.00;100356.09;5112927;28;20042;-76
2022/10/24 08:41:39;;;;;;;6.57;2.20;;;;;;;15.94;100.00;100350.53;5112492;28;20027;-77
2022/10/24 08:44:27;;;;;;;6.53;1.70;;;;;;;15.87;100.00;100345.34;5093579;28;20490;-76
2022/10/24 08:47:13;;;;;;;7.50;2.10;;;;;;;16.00;100.00;100355.69;5112377;28;20032;-77
2022/10/24 08:50:04;;;;;;;9.40;2.10;;;;;;;16.03;100.00;100360.53;5115456;28;20462;-75
2022/10/24 08:52:31;;;;;;;10.43;2.20;;;;;;;16.01;100.00;100369.97;5112365;28;20040;-76
2022/10/24 08:55:02;;;;;;;7.50;2.33;;;;;;;16.01;100.00;100361.88;5093401;28;20039;-76
2022/10/24 08:57:32;;;;;;;7.78;1.85;;;;;;;15.91;100.00;100364.53;5112299;28;20057;-76
2022/10/24 09:00:01;;;;;;;6.43;1.88;;;;;;;16.00;100.00;100373.75;5093996;28;20028;-76
2022/10/24 09:02:32;;;;;;;8.77;1.90;;;;;;;15.99;100.00;100374.81;5115281;28;20096;-76
2022/10/24 09:05:01;;;;;;;9.10;1.92;;;;;;;16.10;100.00;100377.28;5112162;28;20049;-76
2022/10/24 09:07:26;;;;;;;5.30;1.73;;;;;;;16.27;100.00;100379.00;5115213;28;20495;-74
2022/10/24 09:10:06;;;;;;;10.15;1.88;;;;;;;16.47;100.00;100362.06;5112108;28;20066;-75
2022/10/24 09:12:32;;;;;;;6.55;1.98;;;;;;;16.42;99.99;100374.47;5114418;28;20534;-75
2022/10/24 09:14:59;;;;;;;10.27;1.95;;;;;;;16.40;100.00;100365.84;5093800;28;20472;-75
2022/10/24 09:17:29;;;;;;;7.45;1.80;;;;;;;16.38;100.00;100380.66;5112010;28;20092;-76
2022/10/24 09:20:06;;;;;;;7.45;1.75;;;;;;;16.39;100.00;100385.78;5115107;28;20040;-75
2022/10/24 09:22:34;;;;;;;5.18;1.73;;;;;;;16.43;100.00;100396.88;5093886;28;20034;-76
2022/10/24 09:25:06;;;;;;;10.73;2.00;;;;;;;16.53;100.00;100390.72;5093087;28;20491;-76
2022/10/24 09:27:33;;;;;;;;;;;;;;;16.73;100.00;100407.00;5112323;28;20502;-76
2022/10/24 09:29:59;;;;;;;10.85;2.38;;;;;;;16.81;100.00;100397.59;5114679;27;19922;-76
2022/10/24 09:32:29;;;;;;;8.45;1.88;;;;;;;16.78;98.76;100398.94;5093748;28;20070;-76
2022/10/24 09:38:24;;;;;;;10.40;2.25;;;;;;;16.62;99.85;100402.63;5112008;28;20100;-76
2022/10/24 09:40:51;;;;;;;7.47;2.40;;;;;;;16.58;99.42;100409.63;5111732;28;20032;-77
2022/10/24 09:43:21;;;;;;;5.97;1.90;;;;;;;16.63;100.00;100423.16;5114812;28;20040;-76
2022/10/24 09:45:52;;;;;;;8.48;2.20;;;;;;;16.60;97.67;100419.09;5111592;28;20076;-76
2022/10/24 09:48:48;;;;;;;10.55;2.33;;;;;;;16.67;98.58;100408.06;5114685;28;20190;-75
2022/10/24 09:51:34;;;;;;;7.00;1.88;;;;;;;16.64;97.89;100422.88;5093351;28;20040;-74
2022/10/24 09:54:18;;;;;;;7.85;2.25;;;;;;;16.59;98.20;100422.06;5114658;28;20047;-76
2022/10/24 09:57:11;;;;;;;9.38;1.95;;;;;;;16.60;99.96;100418.28;5111472;28;20028;-75
2022/10/24 09:59:48;;;;;;;8.40;2.25;;;;;;;16.63;98.90;100425.84;5092643;28;20050;-75
2022/10/24 10:02:24;;;;;;;12.02;2.38;;;;;;;16.77;98.36;100437.81;5111463;28;20027;-75
2022/10/24 10:05:16;;;;;;;12.07;2.47;;;;;;;16.83;99.05;100435.94;5114725;28;20047;-75
2022/10/24 10:07:47;;;;;;;7.05;2.55;;;;;;;16.89;96.06;100413.28;5111274;28;20034;-75
2022/10/24 10:10:25;;;;;;;8.15;1.90;;;;;;;17.13;96.41;100429.81;5094130;27;20383;-76
2022/10/24 10:13:03;;;;;;;6.03;2.10;;;;;;;17.27;93.57;100444.41;5093418;28;20036;-75
2022/10/24 10:15:31;;;;;;;6.28;2.25;;;;;;;17.17;93.73;100458.72;5092939;28;20038;-75
2022/10/24 10:18:01;;;;;;;10.95;2.35;;;;;;;17.20;95.78;100452.78;5114315;28;20051;-75
2022/10/24 10:23:53;;;;;;;11.23;2.70;;;;;;;17.54;94.56;100458.50;5111582;28;20058;-76
2022/10/24 10:26:40;;;;;;;13.40;3.15;;;;;;;17.89;94.92;100459.59;5114646;28;20035;-75
2022/10/24 10:29:21;;;;;;;6.78;2.20;;;;;;;18.05;91.45;100469.34;5117723;27;20040;-75
2022/10/24 10:31:49;;;;;;;8.80;2.50;;;;;;;17.93;91.09;100429.06;5114689;28;20038;-75
2022/10/24 10:34:21;;;;;;;14.13;2.53;;;;;;;17.89;89.33;100463.13;5095821;28;20048;-76
2022/10/24 10:37:05;;;;;;;9.15;2.53;;;;;;;17.88;88.48;100480.44;5114494;28;20543;-75
2022/10/24 10:40:13;;;;;;;8.43;2.40;;;;;;;17.73;90.10;100472.34;5117596;27;20047;-77
2022/10/24 10:42:59;;;;;;;12.25;2.40;;;;;;;17.49;90.14;100487.44;5114581;28;20128;-74
2022/10/24 10:45:44;;;;;;;5.82;1.70;;;;;;;17.09;91.32;100480.88;5117305;28;20039;-75
2022/10/24 10:48:31;;;;;;;7.90;2.15;;;;;;;17.18;90.47;100486.56;5114405;28;20383;-75
2022/10/24 10:51:27;;;;;;;11.90;2.50;;;;;;;16.77;93.61;100502.63;5097768;28;20046;-76
2022/10/24 10:54:28;;;;;;;9.02;2.67;;;;;;;16.58;95.36;100498.72;5114276;28;20028;-76
2022/10/24 10:56:59;;;;;;;8.82;2.28;;;;;;;16.44;96.73;100503.75;5027082;28;20036;-75
2022/10/24 10:59:53;;;;;;;7.65;2.35;;;;;;;16.47;96.44;100494.31;5114071;28;20103;-75
2022/10/24 11:02:50;;;;;;;10.15;2.10;;;;;;;16.42;99.09;100508.59;5114303;28;20471;-75
2022/10/24 11:05:48;;;;;;;9.93;2.08;;;;;;;16.16;100.00;100526.50;5113915;28;20438;-76
2022/10/24 11:08:38;;;;;;;5.53;2.17;;;;;;;16.01;100.00;100518.31;5073092;27;20048;-75
2022/10/24 11:11:10;;;;;;;8.80;1.90;;;;;;;15.88;100.00;100503.34;5095835;28;20032;-76
2022/10/24 11:13:41;;;;;;;5.60;2.15;;;;;;;15.87;100.00;100503.63;5114100;28;20387;-75
2022/10/24 11:16:16;;;;;;;8.63;1.92;;;;;;;15.99;100.00;100515.88;5117087;28;20077;-75
2022/10/24 11:18:47;;;;;;;6.88;2.10;;;;;;;16.07;100.00;100515.38;5113777;28;20580;-76
2022/10/24 11:21:14;;;;;;;7.95;2.17;;;;;;;16.19;100.00;100528.72;5116820;28;20499;-74
2022/10/24 11:23:50;;;;;;;9.82;2.28;;;;;;;16.29;100.00;100514.47;5095716;28;20031;-76
2022/10/24 11:26:29;;;;;;;8.73;1.83;;;;;;;16.45;100.00;100513.47;5116998;27;20043;-75
2022/10/24 11:29:15;;;;;;;11.57;2.50;;;;;;;16.68;100.00;100509.59;5095629;28;20046;-76
2022/10/24 11:31:55;;;;;;;11.07;2.95;;;;;;;16.83;100.00;100509.69;5097143;28;20039;-76
2022/10/24 11:34:27;;;;;;;12.10;3.10;;;;;;;16.75;100.00;100512.03;5112962;28;20062;-75
2022/10/24 11:37:01;;;;;;;12.17;3.00;;;;;;;16.68;100.00;100515.00;5113674;28;20039;-74
2022/10/24 11:42:58;;;;;;;6.78;2.10;;;;;;;16.77;100.00;100523.41;5111729;28;20092;-75
2022/10/24 11:45:30;;;;;;;6.72;2.03;;;;;;;16.70;100.00;100518.25;5116516;28;20042;-75
2022/10/24 11:48:34;;;;;;;9.82;2.25;;;;;;;16.92;100.00;100527.00;5095127;28;20487;-76
2022/10/24 11:51:08;;;;;;;9.18;2.45;;;;;;;17.13;100.00;100524.38;5115146;28;20044;-75
2022/10/24 11:53:34;;;;;;;12.77;2.25;;;;;;;17.10;99.67;100530.31;5113355;28;20113;-75
2022/10/24 11:56:11;;;;;;;9.60;3.00;;;;;;;17.10;100.00;100520.31;5116258;28;20054;-76
2022/10/24 11:58:49;;;;;;;11.73;3.08;;;;;;;17.19;100.00;100520.59;5113221;28;20391;-75
2022/10/24 12:01:40;;;;;;;8.98;2.35;;;;;;;17.33;99.28;100521.72;5094260;28;20093;-76
2022/10/24 12:11:22;;;;;;;9.55;2.40;;;;;;;17.73;93.99;100533.72;5113406;28;20092;-76
2022/10/24 12:13:53;;;;;;;13.55;2.55;;;;;;;17.68;94.06;100531.03;5116056;27;20092;-76
2022/10/24 12:16:49;;;;;;;15.10;3.42;;;;;;;17.69;94.89;100521.84;5094717;28;20101;-76